sensor_id;sensor_type;location;lat;lon;timestamp;temperature;humidity
17986;DHT22;9118;48.122;11.546;2023-04-16T00:00:39;6.40;99.90
17986;DHT22;9118;48.122;11.546;2023-04-16T00:03:06;6.50;99.90
17986;DHT22;9118;48.122;11.546;2023-04-16T00:05:33;6.50;99.90
17986;DHT22;9118;48.122;11.546;2023-04-16T00:08:01;6.50;99.90
17986;DHT22;9118;48.122;11.546;2023-04-16T00:10:28;6.50;99.90
17986;DHT22;9118;48.122;11.546;2023-04-16T00:12:57;6.40;99.90
17986;DHT22;9118;48.122;11.546;2023-04-16T00:15:25;6.50;99.90
17986;DHT22;9118;48.122;11.546;2023-04-16T00:17:55;6.40;99.90
17986;DHT22;9118;48.122;11.546;2023-04-16T00:20:22;6.40;99.90
17986;DHT22;9118;48.122;11.546;2023-04-16T00:22:50;6.40;99.90
17986;DHT22;9118;48.122;11.546;2023-04-16T00:25:17;6.40;99.90
17986;DHT22;9118;48.122;11.546;2023-04-16T00:27:45;6.40;99.90
17986;DHT22;9118;48.122;11.546;2023-04-16T00:30:14;6.40;99.90
17986;DHT22;9118;48.122;11.546;2023-04-16T00:32:41;6.30;99.90
17986;DHT22;9118;48.122;11.546;2023-04-16T00:35:09;6.40;99.90
17986;DHT22;9118;48.122;11.546;2023-04-16T00:37:36;6.70;99.90
17986;DHT22;9118;48.122;11.546;2023-04-16T00:40:04;6.70;99.90
17986;DHT22;9118;48.122;11.546;2023-04-16T00:42:32;6.40;99.90
17986;DHT22;9118;48.122;11.546;2023-04-16T00:44:59;6.30;99.90
17986;DHT22;9118;48.122;11.546;2023-04-16T00:47:28;6.40;99.90
17986;DHT22;9118;48.122;11.546;2023-04-16T00:49:56;6.30;99.90
17986;DHT22;9118;48.122;11.546;2023-04-16T00:52:24;6.30;99.90
17986;DHT22;9118;48.122;11.546;2023-04-16T00:54:53;6.40;99.90
17986;DHT22;9118;48.122;11.546;2023-04-16T00:57:22;6.40;99.90
17986;DHT22;9118;48.122;11.546;2023-04-16T00:59:50;6.30;99.90
17986;DHT22;9118;48.122;11.546;2023-04-16T01:02:18;6.30;99.90
17986;DHT22;9118;48.122;11.546;2023-04-16T01:04:47;6.40;99.90
17986;DHT22;9118;48.122;11.546;2023-04-16T01:07:15;6.30;99.90
17986;DHT22;9118;48.122;11.546;2023-04-16T01:09:43;6.40;99.90
17986;DHT22;9118;48.122;11.546;2023-04-16T01:12:18;6.50;99.90
17986;DHT22;9118;48.122;11.546;2023-04-16T01:14:46;6.60;99.90
17986;DHT22;9118;48.122;11.546;2023-04-16T01:17:13;6.40;99.90
17986;DHT22;9118;48.122;11.546;2023-04-16T01:19:41;6.40;99.90
17986;DHT22;9118;48.122;11.546;2023-04-16T01:22:10;6.50;99.90
17986;DHT22;9118;48.122;11.546;2023-04-16T01:24:39;7.60;99.90
17986;DHT22;9118;48.122;11.546;2023-04-16T01:27:07;7.70;99.90
17986;DHT22;9118;48.122;11.546;2023-04-16T01:29:34;6.20;99.90
17986;DHT22;9118;48.122;11.546;2023-04-16T01:32:02;6.20;99.90
17986;DHT22;9118;48.122;11.546;2023-04-16T01:34:29;6.30;99.90
17986;DHT22;9118;48.122;11.546;2023-04-16T01:36:56;6.20;99.90
17986;DHT22;9118;48.122;11.546;2023-04-16T01:39:26;6.30;99.90
17986;DHT22;9118;48.122;11.546;2023-04-16T01:41:53;6.40;99.90
17986;DHT22;9118;48.122;11.546;2023-04-16T01:44:20;6.50;99.90
17986;DHT22;9118;48.122;11.546;2023-04-16T01:46:48;6.60;99.90
17986;DHT22;9118;48.122;11.546;2023-04-16T01:49:16;6.60;99.90
17986;DHT22;9118;48.122;11.546;2023-04-16T01:51:43;6.60;99.90
17986;DHT22;9118;48.122;11.546;2023-04-16T01:54:10;6.70;99.90
17986;DHT22;9118;48.122;11.546;2023-04-16T01:56:39;6.10;99.90
17986;DHT22;9118;48.122;11.546;2023-04-16T01:59:07;6.60;99.90
17986;DHT22;9118;48.122;11.546;2023-04-16T02:01:34;6.60;99.90
17986;DHT22;9118;48.122;11.546;2023-04-16T02:04:02;6.60;99.90
17986;DHT22;9118;48.122;11.546;2023-04-16T02:06:30;6.60;99.90
17986;DHT22;9118;48.122;11.546;2023-04-16T02:08:57;6.70;99.90
17986;DHT22;9118;48.122;11.546;2023-04-16T02:11:24;6.70;99.90
17986;DHT22;9118;48.122;11.546;2023-04-16T02:13:53;6.70;99.90
17986;DHT22;9118;48.122;11.546;2023-04-16T02:16:21;6.60;99.90
17986;DHT22;9118;48.122;11.546;2023-04-16T02:18:48;6.60;99.90
17986;DHT22;9118;48.122;11.546;2023-04-16T02:21:16;6.70;99.90
17986;DHT22;9118;48.122;11.546;2023-04-16T02:23:46;6.40;99.90
17986;DHT22;9118;48.122;11.546;2023-04-16T02:26:16;6.50;99.90
17986;DHT22;9118;48.122;11.546;2023-04-16T02:28:43;6.50;99.90
17986;DHT22;9118;48.122;11.546;2023-04-16T02:31:12;6.60;99.90
17986;DHT22;9118;48.122;11.546;2023-04-16T02:33:42;6.50;99.90
17986;DHT22;9118;48.122;11.546;2023-04-16T02:36:10;6.60;99.90
17986;DHT22;9118;48.122;11.546;2023-04-16T02:38:37;6.50;99.90
17986;DHT22;9118;48.122;11.546;2023-04-16T02:41:04;6.60;99.90
17986;DHT22;9118;48.122;11.546;2023-04-16T02:43:32;6.50;99.90
17986;DHT22;9118;48.122;11.546;2023-04-16T02:46:00;6.50;99.90
17986;DHT22;9118;48.122;11.546;2023-04-16T02:48:28;6.60;99.90
17986;DHT22;9118;48.122;11.546;2023-04-16T02:50:56;6.60;99.90
17986;DHT22;9118;48.122;11.546;2023-04-16T02:53:23;6.60;99.90
17986;DHT22;9118;48.122;11.546;2023-04-16T02:55:51;6.60;99.90
17986;DHT22;9118;48.122;11.546;2023-04-16T02:58:19;6.60;99.90
17986;DHT22;9118;48.122;11.546;2023-04-16T03:00:46;6.60;99.90
17986;DHT22;9118;48.122;11.546;2023-04-16T03:03:13;6.70;99.90
17986;DHT22;9118;48.122;11.546;2023-04-16T03:05:42;6.60;99.90
17986;DHT22;9118;48.122;11.546;2023-04-16T03:08:10;7.70;99.90
17986;DHT22;9118;48.122;11.546;2023-04-16T03:10:37;6.70;99.90
17986;DHT22;9118;48.122;11.546;2023-04-16T03:13:06;6.70;99.90
17986;DHT22;9118;48.122;11.546;2023-04-16T03:15:33;6.70;99.90
17986;DHT22;9118;48.122;11.546;2023-04-16T03:18:01;6.70;99.90
17986;DHT22;9118;48.122;11.546;2023-04-16T03:20:29;6.70;99.90
17986;DHT22;9118;48.122;11.546;2023-04-16T03:22:58;6.70;99.90
17986;DHT22;9118;48.122;11.546;2023-04-16T03:25:26;6.90;99.90
17986;DHT22;9118;48.122;11.546;2023-04-16T03:27:55;6.60;99.90
17986;DHT22;9118;48.122;11.546;2023-04-16T03:30:23;6.70;99.90
17986;DHT22;9118;48.122;11.546;2023-04-16T03:32:50;6.20;99.90
17986;DHT22;9118;48.122;11.546;2023-04-16T03:35:18;6.50;99.90
17986;DHT22;9118;48.122;11.546;2023-04-16T03:37:47;6.50;99.90
17986;DHT22;9118;48.122;11.546;2023-04-16T03:40:17;6.60;99.90
17986;DHT22;9118;48.122;11.546;2023-04-16T03:42:44;6.60;99.90
17986;DHT22;9118;48.122;11.546;2023-04-16T03:45:11;6.70;99.90
17986;DHT22;9118;48.122;11.546;2023-04-16T03:47:39;6.70;99.90
17986;DHT22;9118;48.122;11.546;2023-04-16T03:50:07;6.90;99.90
17986;DHT22;9118;48.122;11.546;2023-04-16T03:52:36;6.70;99.90
17986;DHT22;9118;48.122;11.546;2023-04-16T03:55:04;6.80;99.90
17986;DHT22;9118;48.122;11.546;2023-04-16T03:57:33;6.80;99.90
17986;DHT22;9118;48.122;11.546;2023-04-16T04:00:01;6.80;99.90
17986;DHT22;9118;48.122;11.546;2023-04-16T04:02:28;6.70;99.90
17986;DHT22;9118;48.122;11.546;2023-04-16T04:04:55;6.70;99.90
17986;DHT22;9118;48.122;11.546;2023-04-16T04:07:23;6.60;99.90
17986;DHT22;9118;48.122;11.546;2023-04-16T04:09:51;6.70;99.90
17986;DHT22;9118;48.122;11.546;2023-04-16T04:12:18;6.70;99.90
17986;DHT22;9118;48.122;11.546;2023-04-16T04:14:47;6.70;99.90
17986;DHT22;9118;48.122;11.546;2023-04-16T04:17:14;6.70;99.90
17986;DHT22;9118;48.122;11.546;2023-04-16T04:19:43;6.70;99.90
17986;DHT22;9118;48.122;11.546;2023-04-16T04:22:10;6.80;99.90
17986;DHT22;9118;48.122;11.546;2023-04-16T04:24:38;6.90;99.90
17986;DHT22;9118;48.122;11.546;2023-04-16T04:27:05;6.80;99.90
17986;DHT22;9118;48.122;11.546;2023-04-16T04:29:32;6.90;99.90
17986;DHT22;9118;48.122;11.546;2023-04-16T04:32:01;6.90;99.90
17986;DHT22;9118;48.122;11.546;2023-04-16T04:34:28;6.80;99.90
17986;DHT22;9118;48.122;11.546;2023-04-16T04:36:56;6.90;99.90
17986;DHT22;9118;48.122;11.546;2023-04-16T04:39:23;6.90;99.90
17986;DHT22;9118;48.122;11.546;2023-04-16T04:41:51;6.90;99.90
17986;DHT22;9118;48.122;11.546;2023-04-16T04:44:21;6.90;99.90
17986;DHT22;9118;48.122;11.546;2023-04-16T04:46:48;6.70;99.90
17986;DHT22;9118;48.122;11.546;2023-04-16T04:49:17;6.80;99.90
17986;DHT22;9118;48.122;11.546;2023-04-16T04:51:44;6.80;99.90
17986;DHT22;9118;48.122;11.546;2023-04-16T04:54:12;6.80;99.90
17986;DHT22;9118;48.122;11.546;2023-04-16T04:56:39;6.80;99.90
17986;DHT22;9118;48.122;11.546;2023-04-16T04:59:06;6.70;99.90
17986;DHT22;9118;48.122;11.546;2023-04-16T05:01:33;7.70;99.90
17986;DHT22;9118;48.122;11.546;2023-04-16T05:04:01;6.70;99.90
17986;DHT22;9118;48.122;11.546;2023-04-16T05:06:31;6.80;99.90
17986;DHT22;9118;48.122;11.546;2023-04-16T05:08:59;6.80;99.90
17986;DHT22;9118;48.122;11.546;2023-04-16T05:11:26;8.00;99.90
17986;DHT22;9118;48.122;11.546;2023-04-16T05:13:53;6.80;99.90
17986;DHT22;9118;48.122;11.546;2023-04-16T05:16:20;6.80;99.90
17986;DHT22;9118;48.122;11.546;2023-04-16T05:18:47;6.90;99.90
17986;DHT22;9118;48.122;11.546;2023-04-16T05:21:15;6.80;99.90
17986;DHT22;9118;48.122;11.546;2023-04-16T05:23:43;6.80;99.90
17986;DHT22;9118;48.122;11.546;2023-04-16T05:26:10;6.80;99.90
17986;DHT22;9118;48.122;11.546;2023-04-16T05:28:37;6.70;99.90
17986;DHT22;9118;48.122;11.546;2023-04-16T05:31:04;6.70;99.90
17986;DHT22;9118;48.122;11.546;2023-04-16T05:33:32;6.70;99.90
17986;DHT22;9118;48.122;11.546;2023-04-16T05:35:59;6.80;99.90
17986;DHT22;9118;48.122;11.546;2023-04-16T05:38:26;7.00;99.90
17986;DHT22;9118;48.122;11.546;2023-04-16T05:40:57;7.00;99.90
17986;DHT22;9118;48.122;11.546;2023-04-16T05:43:24;7.00;99.90
17986;DHT22;9118;48.122;11.546;2023-04-16T05:45:51;6.00;99.90
17986;DHT22;9118;48.122;11.546;2023-04-16T05:48:18;7.00;99.90
17986;DHT22;9118;48.122;11.546;2023-04-16T05:50:46;7.00;99.90
17986;DHT22;9118;48.122;11.546;2023-04-16T05:53:13;7.10;99.90
17986;DHT22;9118;48.122;11.546;2023-04-16T05:55:41;7.10;99.90
17986;DHT22;9118;48.122;11.546;2023-04-16T05:58:09;7.10;99.90
17986;DHT22;9118;48.122;11.546;2023-04-16T06:00:37;7.20;99.90
17986;DHT22;9118;48.122;11.546;2023-04-16T06:03:04;7.20;99.90
17986;DHT22;9118;48.122;11.546;2023-04-16T06:05:31;7.30;99.90
17986;DHT22;9118;48.122;11.546;2023-04-16T06:07:58;7.40;99.90
17986;DHT22;9118;48.122;11.546;2023-04-16T06:10:26;7.40;99.90
17986;DHT22;9118;48.122;11.546;2023-04-16T06:12:53;7.40;99.90
17986;DHT22;9118;48.122;11.546;2023-04-16T06:15:22;7.30;99.90
17986;DHT22;9118;48.122;11.546;2023-04-16T06:17:49;6.80;99.90
17986;DHT22;9118;48.122;11.546;2023-04-16T06:20:16;7.40;99.90
17986;DHT22;9118;48.122;11.546;2023-04-16T06:22:44;7.50;99.90
17986;DHT22;9118;48.122;11.546;2023-04-16T06:25:11;7.60;99.90
17986;DHT22;9118;48.122;11.546;2023-04-16T06:27:41;7.70;99.90
17986;DHT22;9118;48.122;11.546;2023-04-16T06:30:11;8.40;99.90
17986;DHT22;9118;48.122;11.546;2023-04-16T06:32:41;7.90;99.90
17986;DHT22;9118;48.122;11.546;2023-04-16T06:35:12;8.00;99.90
17986;DHT22;9118;48.122;11.546;2023-04-16T06:37:39;8.00;99.90
17986;DHT22;9118;48.122;11.546;2023-04-16T06:40:07;8.10;99.90
17986;DHT22;9118;48.122;11.546;2023-04-16T06:42:34;8.00;99.90
17986;DHT22;9118;48.122;11.546;2023-04-16T06:45:02;7.90;99.90
17986;DHT22;9118;48.122;11.546;2023-04-16T06:47:29;7.90;99.90
17986;DHT22;9118;48.122;11.546;2023-04-16T06:49:57;8.00;99.90
17986;DHT22;9118;48.122;11.546;2023-04-16T06:52:25;8.00;99.90
17986;DHT22;9118;48.122;11.546;2023-04-16T06:54:52;8.20;99.90
17986;DHT22;9118;48.122;11.546;2023-04-16T06:57:19;8.20;99.90
17986;DHT22;9118;48.122;11.546;2023-04-16T06:59:47;8.10;99.90
17986;DHT22;9118;48.122;11.546;2023-04-16T07:02:16;8.20;99.90
17986;DHT22;9118;48.122;11.546;2023-04-16T07:04:44;8.30;99.90
17986;DHT22;9118;48.122;11.546;2023-04-16T07:07:14;8.30;99.90
17986;DHT22;9118;48.122;11.546;2023-04-16T07:09:41;8.40;99.90
17986;DHT22;9118;48.122;11.546;2023-04-16T07:12:09;8.30;99.90
17986;DHT22;9118;48.122;11.546;2023-04-16T07:14:40;8.40;99.90
17986;DHT22;9118;48.122;11.546;2023-04-16T07:17:07;8.30;99.90
17986;DHT22;9118;48.122;11.546;2023-04-16T07:19:34;8.30;99.90
17986;DHT22;9118;48.122;11.546;2023-04-16T07:22:02;8.40;99.90
17986;DHT22;9118;48.122;11.546;2023-04-16T07:24:31;8.50;99.90
17986;DHT22;9118;48.122;11.546;2023-04-16T07:26:58;8.40;99.90
17986;DHT22;9118;48.122;11.546;2023-04-16T07:29:26;8.50;99.90
17986;DHT22;9118;48.122;11.546;2023-04-16T07:31:53;8.60;99.90
17986;DHT22;9118;48.122;11.546;2023-04-16T07:34:21;8.60;99.90
17986;DHT22;9118;48.122;11.546;2023-04-16T07:36:48;9.00;99.90
17986;DHT22;9118;48.122;11.546;2023-04-16T07:39:18;8.30;99.90
17986;DHT22;9118;48.122;11.546;2023-04-16T07:41:47;7.90;99.90
17986;DHT22;9118;48.122;11.546;2023-04-16T07:44:14;8.30;99.90
17986;DHT22;9118;48.122;11.546;2023-04-16T07:46:42;8.40;99.90
17986;DHT22;9118;48.122;11.546;2023-04-16T07:49:09;8.30;99.90
17986;DHT22;9118;48.122;11.546;2023-04-16T07:51:37;8.40;99.90
17986;DHT22;9118;48.122;11.546;2023-04-16T07:54:04;8.60;99.90
17986;DHT22;9118;48.122;11.546;2023-04-16T07:56:32;8.50;99.90
17986;DHT22;9118;48.122;11.546;2023-04-16T07:59:00;8.40;99.90
17986;DHT22;9118;48.122;11.546;2023-04-16T08:01:28;8.20;99.90
17986;DHT22;9118;48.122;11.546;2023-04-16T08:03:56;8.80;99.90
17986;DHT22;9118;48.122;11.546;2023-04-16T08:06:25;8.40;99.90
17986;DHT22;9118;48.122;11.546;2023-04-16T08:08:53;8.50;99.90
17986;DHT22;9118;48.122;11.546;2023-04-16T08:11:20;8.60;99.90
17986;DHT22;9118;48.122;11.546;2023-04-16T08:13:47;8.70;99.90
17986;DHT22;9118;48.122;11.546;2023-04-16T08:16:17;8.90;99.90
17986;DHT22;9118;48.122;11.546;2023-04-16T08:18:44;9.00;99.90
17986;DHT22;9118;48.122;11.546;2023-04-16T08:21:12;9.10;99.90
17986;DHT22;9118;48.122;11.546;2023-04-16T08:23:40;9.20;99.90
17986;DHT22;9118;48.122;11.546;2023-04-16T08:26:08;9.40;99.90
17986;DHT22;9118;48.122;11.546;2023-04-16T08:28:36;9.60;99.90
17986;DHT22;9118;48.122;11.546;2023-04-16T08:31:04;9.60;99.90
17986;DHT22;9118;48.122;11.546;2023-04-16T08:33:33;9.70;99.90
17986;DHT22;9118;48.122;11.546;2023-04-16T08:36:00;9.80;99.90
17986;DHT22;9118;48.122;11.546;2023-04-16T08:38:27;9.60;99.90
17986;DHT22;9118;48.122;11.546;2023-04-16T08:40:55;9.50;99.90
17986;DHT22;9118;48.122;11.546;2023-04-16T08:43:24;9.10;99.90
17986;DHT22;9118;48.122;11.546;2023-04-16T08:45:52;9.50;99.90
17986;DHT22;9118;48.122;11.546;2023-04-16T08:48:22;9.40;99.90
17986;DHT22;9118;48.122;11.546;2023-04-16T08:50:52;9.20;99.90
17986;DHT22;9118;48.122;11.546;2023-04-16T08:53:23;9.40;99.90
17986;DHT22;9118;48.122;11.546;2023-04-16T08:55:52;9.60;99.90
17986;DHT22;9118;48.122;11.546;2023-04-16T08:58:21;9.90;99.90
17986;DHT22;9118;48.122;11.546;2023-04-16T09:00:49;9.90;99.90
17986;DHT22;9118;48.122;11.546;2023-04-16T09:03:16;10.00;99.90
17986;DHT22;9118;48.122;11.546;2023-04-16T09:05:46;10.10;99.90
17986;DHT22;9118;48.122;11.546;2023-04-16T09:08:16;10.30;99.90
17986;DHT22;9118;48.122;11.546;2023-04-16T09:10:45;10.50;99.90
17986;DHT22;9118;48.122;11.546;2023-04-16T09:13:12;10.70;99.90
17986;DHT22;9118;48.122;11.546;2023-04-16T09:15:42;10.70;99.90
17986;DHT22;9118;48.122;11.546;2023-04-16T09:18:10;10.70;99.90
17986;DHT22;9118;48.122;11.546;2023-04-16T09:20:37;10.80;99.90
17986;DHT22;9118;48.122;11.546;2023-04-16T09:23:05;10.90;99.90
17986;DHT22;9118;48.122;11.546;2023-04-16T09:25:33;10.90;99.90
17986;DHT22;9118;48.122;11.546;2023-04-16T09:28:02;10.90;99.90
17986;DHT22;9118;48.122;11.546;2023-04-16T09:30:29;11.00;99.90
17986;DHT22;9118;48.122;11.546;2023-04-16T09:33:12;11.10;99.90
17986;DHT22;9118;48.122;11.546;2023-04-16T09:35:44;11.10;99.90
17986;DHT22;9118;48.122;11.546;2023-04-16T09:38:12;11.30;99.90
17986;DHT22;9118;48.122;11.546;2023-04-16T09:40:42;11.30;99.90
17986;DHT22;9118;48.122;11.546;2023-04-16T09:43:10;11.50;99.90
17986;DHT22;9118;48.122;11.546;2023-04-16T09:45:48;11.70;99.90
17986;DHT22;9118;48.122;11.546;2023-04-16T09:48:27;11.80;99.90
17986;DHT22;9118;48.122;11.546;2023-04-16T09:50:57;12.10;99.90
17986;DHT22;9118;48.122;11.546;2023-04-16T09:53:25;11.70;99.90
17986;DHT22;9118;48.122;11.546;2023-04-16T09:55:57;11.60;99.90
17986;DHT22;9118;48.122;11.546;2023-04-16T09:58:24;11.50;99.90
17986;DHT22;9118;48.122;11.546;2023-04-16T10:00:55;11.40;99.90
17986;DHT22;9118;48.122;11.546;2023-04-16T10:03:28;11.40;99.90
17986;DHT22;9118;48.122;11.546;2023-04-16T10:05:59;11.40;99.90
17986;DHT22;9118;48.122;11.546;2023-04-16T10:08:27;11.20;99.90
17986;DHT22;9118;48.122;11.546;2023-04-16T10:10:57;11.30;99.90
17986;DHT22;9118;48.122;11.546;2023-04-16T10:13:24;11.10;99.90
17986;DHT22;9118;48.122;11.546;2023-04-16T10:15:54;11.20;99.90
17986;DHT22;9118;48.122;11.546;2023-04-16T10:18:22;11.20;99.90
17986;DHT22;9118;48.122;11.546;2023-04-16T10:20:50;11.40;99.90
17986;DHT22;9118;48.122;11.546;2023-04-16T10:23:20;11.30;99.90
17986;DHT22;9118;48.122;11.546;2023-04-16T10:25:48;11.50;99.90
17986;DHT22;9118;48.122;11.546;2023-04-16T10:28:18;11.50;99.90
17986;DHT22;9118;48.122;11.546;2023-04-16T10:30:47;11.50;99.90
17986;DHT22;9118;48.122;11.546;2023-04-16T10:33:22;11.10;99.90
17986;DHT22;9118;48.122;11.546;2023-04-16T10:35:51;11.10;99.90
17986;DHT22;9118;48.122;11.546;2023-04-16T10:38:23;11.10;99.90
17986;DHT22;9118;48.122;11.546;2023-04-16T10:40:58;10.80;99.90
17986;DHT22;9118;48.122;11.546;2023-04-16T10:43:27;11.00;99.90
17986;DHT22;9118;48.122;11.546;2023-04-16T10:45:55;11.30;99.90
17986;DHT22;9118;48.122;11.546;2023-04-16T10:48:23;11.50;99.90
17986;DHT22;9118;48.122;11.546;2023-04-16T10:50:55;11.50;99.90
17986;DHT22;9118;48.122;11.546;2023-04-16T10:53:26;11.50;99.90
17986;DHT22;9118;48.122;11.546;2023-04-16T10:56:10;11.60;99.90
17986;DHT22;9118;48.122;11.546;2023-04-16T10:58:39;11.60;99.90
17986;DHT22;9118;48.122;11.546;2023-04-16T11:01:11;11.40;99.90
17986;DHT22;9118;48.122;11.546;2023-04-16T11:03:43;10.80;99.90
17986;DHT22;9118;48.122;11.546;2023-04-16T11:06:13;10.00;99.90
17986;DHT22;9118;48.122;11.546;2023-04-16T11:08:43;10.10;99.90
17986;DHT22;9118;48.122;11.546;2023-04-16T11:11:10;10.30;99.90
17986;DHT22;9118;48.122;11.546;2023-04-16T11:13:42;10.90;99.90
17986;DHT22;9118;48.122;11.546;2023-04-16T11:16:10;11.30;99.90
17986;DHT22;9118;48.122;11.546;2023-04-16T11:18:38;11.60;99.90
17986;DHT22;9118;48.122;11.546;2023-04-16T11:21:07;11.00;99.90
17986;DHT22;9118;48.122;11.546;2023-04-16T11:23:45;10.70;99.90
17986;DHT22;9118;48.122;11.546;2023-04-16T11:26:23;10.60;99.90
17986;DHT22;9118;48.122;11.546;2023-04-16T11:28:53;10.80;99.90
17986;DHT22;9118;48.122;11.546;2023-04-16T11:31:22;10.50;99.90
17986;DHT22;9118;48.122;11.546;2023-04-16T11:33:51;10.70;99.90
17986;DHT22;9118;48.122;11.546;2023-04-16T11:36:21;10.80;99.90
17986;DHT22;9118;48.122;11.546;2023-04-16T11:38:48;10.60;99.90
17986;DHT22;9118;48.122;11.546;2023-04-16T11:41:19;10.70;99.90
17986;DHT22;9118;48.122;11.546;2023-04-16T11:43:48;10.80;99.90
17986;DHT22;9118;48.122;11.546;2023-04-16T11:46:16;11.00;99.90
17986;DHT22;9118;48.122;11.546;2023-04-16T11:48:48;11.10;99.90
17986;DHT22;9118;48.122;11.546;2023-04-16T11:51:16;11.30;99.90
17986;DHT22;9118;48.122;11.546;2023-04-16T11:53:47;11.40;99.90
17986;DHT22;9118;48.122;11.546;2023-04-16T11:56:14;11.60;99.90
17986;DHT22;9118;48.122;11.546;2023-04-16T11:58:42;11.60;99.90
17986;DHT22;9118;48.122;11.546;2023-04-16T12:01:10;11.50;99.90
17986;DHT22;9118;48.122;11.546;2023-04-16T12:03:40;11.50;99.90
17986;DHT22;9118;48.122;11.546;2023-04-16T12:06:10;11.60;99.90
17986;DHT22;9118;48.122;11.546;2023-04-16T12:08:38;11.50;99.90
17986;DHT22;9118;48.122;11.546;2023-04-16T12:11:05;11.40;99.90
17986;DHT22;9118;48.122;11.546;2023-04-16T12:13:32;11.40;99.90
17986;DHT22;9118;48.122;11.546;2023-04-16T12:16:17;10.70;99.90
17986;DHT22;9118;48.122;11.546;2023-04-16T12:19:00;11.10;99.90
17986;DHT22;9118;48.122;11.546;2023-04-16T12:21:38;11.10;99.90
17986;DHT22;9118;48.122;11.546;2023-04-16T12:24:08;11.10;99.90
17986;DHT22;9118;48.122;11.546;2023-04-16T12:26:41;11.10;99.90
17986;DHT22;9118;48.122;11.546;2023-04-16T12:29:16;11.00;99.90
17986;DHT22;9118;48.122;11.546;2023-04-16T12:31:44;10.90;99.90
17986;DHT22;9118;48.122;11.546;2023-04-16T12:34:13;10.90;99.90
17986;DHT22;9118;48.122;11.546;2023-04-16T12:36:42;11.00;99.90
17986;DHT22;9118;48.122;11.546;2023-04-16T12:39:10;10.90;99.90
17986;DHT22;9118;48.122;11.546;2023-04-16T12:41:39;10.80;99.90
17986;DHT22;9118;48.122;11.546;2023-04-16T12:44:07;10.80;99.90
17986;DHT22;9118;48.122;11.546;2023-04-16T12:46:38;10.80;99.90
17986;DHT22;9118;48.122;11.546;2023-04-16T12:49:06;10.80;99.90
17986;DHT22;9118;48.122;11.546;2023-04-16T12:51:35;10.80;99.90
17986;DHT22;9118;48.122;11.546;2023-04-16T12:54:04;10.80;99.90
17986;DHT22;9118;48.122;11.546;2023-04-16T12:56:33;10.80;99.90
17986;DHT22;9118;48.122;11.546;2023-04-16T12:59:01;10.70;99.90
17986;DHT22;9118;48.122;11.546;2023-04-16T13:01:28;10.70;99.90
17986;DHT22;9118;48.122;11.546;2023-04-16T13:03:56;11.60;99.90
17986;DHT22;9118;48.122;11.546;2023-04-16T13:06:23;10.60;99.90
17986;DHT22;9118;48.122;11.546;2023-04-16T13:08:52;10.70;99.90
17986;DHT22;9118;48.122;11.546;2023-04-16T13:11:20;10.70;99.90
17986;DHT22;9118;48.122;11.546;2023-04-16T13:13:47;10.50;99.90
17986;DHT22;9118;48.122;11.546;2023-04-16T13:16:15;10.50;99.90
17986;DHT22;9118;48.122;11.546;2023-04-16T13:18:42;10.40;99.90
17986;DHT22;9118;48.122;11.546;2023-04-16T13:21:10;10.50;99.90
17986;DHT22;9118;48.122;11.546;2023-04-16T13:23:37;10.60;99.90
17986;DHT22;9118;48.122;11.546;2023-04-16T13:26:06;10.70;99.90
17986;DHT22;9118;48.122;11.546;2023-04-16T13:28:37;10.70;99.90
17986;DHT22;9118;48.122;11.546;2023-04-16T13:31:05;10.90;99.90
17986;DHT22;9118;48.122;11.546;2023-04-16T13:33:32;10.90;99.90
17986;DHT22;9118;48.122;11.546;2023-04-16T13:35:59;10.80;99.90
17986;DHT22;9118;48.122;11.546;2023-04-16T13:38:27;10.70;99.90
17986;DHT22;9118;48.122;11.546;2023-04-16T13:40:54;10.70;99.90
17986;DHT22;9118;48.122;11.546;2023-04-16T13:43:23;10.40;99.90
17986;DHT22;9118;48.122;11.546;2023-04-16T13:45:51;10.70;99.90
17986;DHT22;9118;48.122;11.546;2023-04-16T13:48:18;10.80;99.90
17986;DHT22;9118;48.122;11.546;2023-04-16T13:50:45;10.80;99.90
17986;DHT22;9118;48.122;11.546;2023-04-16T13:53:12;10.70;99.90
17986;DHT22;9118;48.122;11.546;2023-04-16T13:55:39;10.70;99.90
17986;DHT22;9118;48.122;11.546;2023-04-16T13:58:07;10.90;99.90
17986;DHT22;9118;48.122;11.546;2023-04-16T14:00:37;11.00;99.90
17986;DHT22;9118;48.122;11.546;2023-04-16T14:03:05;11.10;99.90
17986;DHT22;9118;48.122;11.546;2023-04-16T14:05:32;11.00;99.90
17986;DHT22;9118;48.122;11.546;2023-04-16T14:07:59;10.90;99.90
17986;DHT22;9118;48.122;11.546;2023-04-16T14:10:26;10.90;99.90
17986;DHT22;9118;48.122;11.546;2023-04-16T14:12:53;11.00;99.90
17986;DHT22;9118;48.122;11.546;2023-04-16T14:15:21;11.00;99.90
17986;DHT22;9118;48.122;11.546;2023-04-16T14:17:52;11.10;99.90
17986;DHT22;9118;48.122;11.546;2023-04-16T14:20:19;11.20;99.90
17986;DHT22;9118;48.122;11.546;2023-04-16T14:22:46;11.10;99.90
17986;DHT22;9118;48.122;11.546;2023-04-16T14:25:14;11.20;99.90
17986;DHT22;9118;48.122;11.546;2023-04-16T14:27:41;11.30;99.90
17986;DHT22;9118;48.122;11.546;2023-04-16T14:30:09;11.30;99.90
17986;DHT22;9118;48.122;11.546;2023-04-16T14:32:36;11.50;99.90
17986;DHT22;9118;48.122;11.546;2023-04-16T14:35:06;11.30;99.90
17986;DHT22;9118;48.122;11.546;2023-04-16T14:37:35;11.30;99.90
17986;DHT22;9118;48.122;11.546;2023-04-16T14:40:04;11.40;99.90
17986;DHT22;9118;48.122;11.546;2023-04-16T14:42:33;11.20;99.90
17986;DHT22;9118;48.122;11.546;2023-04-16T14:45:01;10.70;99.90
17986;DHT22;9118;48.122;11.546;2023-04-16T14:47:28;10.90;99.90
17986;DHT22;9118;48.122;11.546;2023-04-16T14:49:55;10.90;99.90
17986;DHT22;9118;48.122;11.546;2023-04-16T14:52:24;11.00;99.90
17986;DHT22;9118;48.122;11.546;2023-04-16T14:54:52;11.20;99.90
17986;DHT22;9118;48.122;11.546;2023-04-16T14:57:19;11.20;99.90
17986;DHT22;9118;48.122;11.546;2023-04-16T14:59:47;11.20;99.90
17986;DHT22;9118;48.122;11.546;2023-04-16T15:02:14;11.20;99.90
17986;DHT22;9118;48.122;11.546;2023-04-16T15:04:41;11.20;99.90
17986;DHT22;9118;48.122;11.546;2023-04-16T15:07:09;11.20;99.90
17986;DHT22;9118;48.122;11.546;2023-04-16T15:09:38;11.10;99.90
17986;DHT22;9118;48.122;11.546;2023-04-16T15:12:05;11.00;99.90
17986;DHT22;9118;48.122;11.546;2023-04-16T15:14:32;11.00;99.90
17986;DHT22;9118;48.122;11.546;2023-04-16T15:16:59;11.00;99.90
17986;DHT22;9118;48.122;11.546;2023-04-16T15:19:26;11.00;99.90
17986;DHT22;9118;48.122;11.546;2023-04-16T15:21:53;11.10;99.90
17986;DHT22;9118;48.122;11.546;2023-04-16T15:24:21;10.90;99.90
17986;DHT22;9118;48.122;11.546;2023-04-16T15:26:50;10.90;99.90
17986;DHT22;9118;48.122;11.546;2023-04-16T15:29:17;10.80;99.90
17986;DHT22;9118;48.122;11.546;2023-04-16T15:31:46;10.80;99.90
17986;DHT22;9118;48.122;11.546;2023-04-16T15:34:13;11.30;99.90
17986;DHT22;9118;48.122;11.546;2023-04-16T15:36:41;10.80;99.90
17986;DHT22;9118;48.122;11.546;2023-04-16T15:39:09;10.90;99.90
17986;DHT22;9118;48.122;11.546;2023-04-16T15:41:36;10.90;99.90
17986;DHT22;9118;48.122;11.546;2023-04-16T15:44:06;10.70;99.90
17986;DHT22;9118;48.122;11.546;2023-04-16T15:46:33;10.60;99.90